Time;durP1;ratioP1;P1;durP2;ratioP2;P2;SDS_P1;SDS_P2;PMS_P1;PMS_P2;Temp;Humidity;BMP_temperature;BMP_pressure;BME280_temperature;BME280_humidity;BME280_pressure;Samples;Min_cycle;Max_cycle;Signal;HPM_P1;HPM_P2
2023/03/07 00:01:39;;;;;;;30.20;27.50;;;3.90;99.90;;;;;;5094637;28;20497;-70
2023/03/07 00:04:05;;;;;;;29.27;25.90;;;3.90;99.90;;;;;;5090919;28;20518;-71
2023/03/07 00:06:33;;;;;;;28.40;25.87;;;3.80;99.90;;;;;;5091984;28;20957;-71
2023/03/07 00:09:02;;;;;;;26.37;24.23;;;3.80;99.90;;;;;;5102521;28;20488;-71
2023/03/07 00:11:29;;;;;;;29.07;26.07;;;3.80;99.90;;;;;;5091407;28;20556;-69
2023/03/07 00:13:56;;;;;;;28.53;25.90;;;3.90;99.90;;;;;;5100443;28;20487;-72
2023/03/07 00:16:25;;;;;;;26.07;23.67;;;3.90;99.90;;;;;;5098010;28;20465;-72
2023/03/07 00:18:52;;;;;;;27.10;24.70;;;3.90;99.90;;;;;;5098511;28;20858;-73
2023/03/07 00:21:21;;;;;;;28.40;25.70;;;3.90;99.90;;;;;;5093555;28;20508;-70
2023/03/07 00:23:48;;;;;;;27.83;25.50;;;3.90;99.90;;;;;;5096528;28;20461;-69
2023/03/07 00:26:19;;;;;;;29.43;26.27;;;3.90;99.90;;;;;;5092067;28;20530;-69
2023/03/07 00:28:47;;;;;;;26.40;23.87;;;3.90;99.90;;;;;;5097716;28;20470;-69
2023/03/07 00:31:15;;;;;;;25.90;23.70;;;3.90;99.90;;;;;;5088044;28;20461;-71
2023/03/07 00:33:41;;;;;;;28.13;25.33;;;3.90;99.90;;;;;;5093620;28;20960;-70
2023/03/07 00:36:12;;;;;;;21.90;20.13;;;3.90;99.90;;;;;;5092723;28;20454;-70
2023/03/07 00:38:40;;;;;;;26.80;24.10;;;3.90;99.90;;;;;;5094741;28;21300;-71
2023/03/07 00:41:09;;;;;;;26.93;24.27;;;3.90;99.90;;;;;;5094795;28;20478;-70
2023/03/07 00:43:40;;;;;;;25.83;23.63;;;4.00;99.90;;;;;;5093834;28;21088;-72
2023/03/07 00:46:08;;;;;;;23.40;21.43;;;3.90;99.90;;;;;;5091337;28;20953;-69
2023/03/07 00:48:36;;;;;;;25.07;22.77;;;4.00;99.90;;;;;;5096948;28;20461;-70
2023/03/07 00:51:05;;;;;;;23.07;21.37;;;4.00;99.90;;;;;;5096074;28;20465;-70
2023/03/07 00:53:32;;;;;;;25.00;22.90;;;4.00;99.90;;;;;;5095283;28;20473;-70
2023/03/07 00:56:00;;;;;;;23.83;21.80;;;4.10;99.90;;;;;;5094849;28;20509;-71
2023/03/07 00:58:28;;;;;;;22.87;21.10;;;4.10;99.90;;;;;;5094743;28;20785;-71
2023/03/07 01:00:57;;;;;;;22.27;20.43;;;4.10;99.90;;;;;;5099933;28;20458;-71
2023/03/07 01:03:25;;;;;;;23.33;21.20;;;4.10;99.90;;;;;;5094538;28;20494;-68
2023/03/07 01:05:54;;;;;;;19.97;18.50;;;4.20;99.90;;;;;;5095679;28;20527;-71
2023/03/07 01:08:22;;;;;;;24.67;22.43;;;4.20;99.90;;;;;;5093200;28;20856;-69
2023/03/07 01:10:50;;;;;;;24.07;22.07;;;4.20;99.90;;;;;;5091317;28;20461;-70
2023/03/07 01:13:18;;;;;;;23.17;21.13;;;4.20;99.90;;;;;;5093700;28;20469;-70
2023/03/07 01:15:45;;;;;;;22.87;20.97;;;4.20;99.90;;;;;;5094161;28;20470;-69
2023/03/07 01:18:14;;;;;;;23.37;21.37;;;4.20;99.90;;;;;;5101285;28;20790;-71
2023/03/07 01:20:41;;;;;;;21.43;19.67;;;4.20;99.90;;;;;;5096284;28;20494;-70
2023/03/07 01:23:10;;;;;;;23.40;21.43;;;4.20;99.90;;;;;;5092279;28;20513;-70
2023/03/07 01:25:40;;;;;;;23.80;21.90;;;4.20;99.90;;;;;;5089744;28;20970;-70
2023/03/07 01:28:09;;;;;;;20.93;19.03;;;4.30;99.90;;;;;;5091114;28;20912;-72
2023/03/07 01:30:35;;;;;;;22.37;20.50;;;4.20;99.90;;;;;;5093468;28;20458;-69
2023/03/07 01:33:02;;;;;;;19.97;18.40;;;4.30;99.90;;;;;;5095857;28;20498;-70
2023/03/07 01:35:36;;;;;;;20.27;18.80;;;4.20;99.90;;;;;;5089533;28;20462;-71
2023/03/07 01:38:04;;;;;;;21.83;19.93;;;4.20;99.90;;;;;;5089543;28;20527;-69
2023/03/07 01:40:31;;;;;;;21.90;20.10;;;4.20;99.90;;;;;;5087501;28;20980;-69
2023/03/07 01:43:24;;;;;;;19.70;18.30;;;4.20;99.90;;;;;;5086219;28;20477;-72
2023/03/07 01:46:38;;;;;;;21.07;19.47;;;4.10;99.90;;;;;;5092632;28;20945;-71
2023/03/07 01:49:10;;;;;;;19.63;18.30;;;4.20;99.90;;;;;;5085695;28;20469;-71
2023/03/07 01:51:43;;;;;;;18.73;17.30;;;4.20;99.90;;;;;;5096498;28;20458;-71
2023/03/07 01:54:11;;;;;;;19.90;18.30;;;4.20;99.90;;;;;;5094711;28;20449;-71
2023/03/07 01:56:39;;;;;;;20.57;18.87;;;4.20;99.90;;;;;;5091676;28;20466;-71
2023/03/07 01:59:06;;;;;;;19.10;17.80;;;4.20;99.90;;;;;;5095907;28;20469;-71
2023/03/07 02:01:34;;;;;;;18.63;17.23;;;4.20;99.90;;;;;;5096461;28;20469;-71
2023/03/07 02:04:06;;;;;;;19.90;18.30;;;4.10;99.90;;;;;;5088788;28;20472;-72
2023/03/07 02:06:37;;;;;;;18.50;17.00;;;4.20;99.90;;;;;;5089170;28;20848;-73
2023/03/07 02:09:11;;;;;;;19.23;17.63;;;4.20;99.90;;;;;;5095170;28;20904;-72
2023/03/07 02:11:39;;;;;;;19.53;17.93;;;4.10;99.90;;;;;;5095813;28;20823;-72
2023/03/07 02:14:06;;;;;;;19.23;17.27;;;4.10;99.90;;;;;;5091842;28;20469;-71
2023/03/07 02:16:33;;;;;;;21.47;19.63;;;4.10;99.90;;;;;;5092952;28;20457;-72
2023/03/07 02:19:01;;;;;;;19.80;18.30;;;4.10;99.90;;;;;;5092274;28;20583;-71
2023/03/07 02:21:38;;;;;;;19.00;17.60;;;4.20;99.90;;;;;;5098163;28;20484;-72
2023/03/07 02:24:16;;;;;;;20.83;19.07;;;4.10;99.90;;;;;;5099633;28;20461;-71
2023/03/07 02:26:46;;;;;;;22.50;20.70;;;4.20;99.90;;;;;;5093697;28;20464;-71
2023/03/07 02:29:14;;;;;;;22.63;20.43;;;4.20;99.90;;;;;;5090469;28;20451;-71
2023/03/07 02:31:41;;;;;;;21.23;19.47;;;4.20;99.90;;;;;;5092001;28;20464;-70
2023/03/07 02:34:21;;;;;;;23.27;21.07;;;4.30;99.90;;;;;;5090155;28;20950;-71
2023/03/07 02:36:50;;;;;;;24.20;21.80;;;4.30;99.90;;;;;;5090746;28;20527;-71
2023/03/07 02:39:20;;;;;;;24.10;21.83;;;4.20;99.90;;;;;;5097039;28;20474;-70
2023/03/07 02:41:52;;;;;;;24.77;22.43;;;4.30;99.90;;;;;;5101235;28;20567;-71
2023/03/07 02:44:19;;;;;;;24.53;22.23;;;4.30;99.90;;;;;;5097138;28;20487;-71
2023/03/07 02:46:45;;;;;;;24.70;21.10;;;4.30;99.90;;;;;;5093076;28;20463;-70
2023/03/07 02:49:12;;;;;;;21.37;19.50;;;4.30;99.90;;;;;;5095035;28;20468;-70
2023/03/07 02:51:39;;;;;;;24.73;22.40;;;4.20;99.90;;;;;;5091898;28;20511;-71
2023/03/07 02:54:07;;;;;;;23.63;21.53;;;4.20;99.90;;;;;;5095947;28;20467;-71
2023/03/07 02:56:35;;;;;;;24.93;22.83;;;4.20;99.90;;;;;;5089508;28;20454;-70
2023/03/07 02:59:03;;;;;;;25.27;22.83;;;4.20;99.90;;;;;;5085801;28;20466;-70
2023/03/07 03:01:30;;;;;;;23.50;21.50;;;4.30;99.90;;;;;;5092514;28;20550;-70
2023/03/07 03:03:57;;;;;;;24.80;22.50;;;4.30;99.90;;;;;;5091500;28;20532;-71
2023/03/07 03:06:24;;;;;;;24.87;22.27;;;4.20;99.90;;;;;;5089553;28;20502;-70
2023/03/07 03:08:51;;;;;;;23.10;21.03;;;4.20;99.90;;;;;;5090492;28;20995;-70
2023/03/07 03:11:18;;;;;;;24.07;21.83;;;4.20;99.90;;;;;;5088740;28;20960;-70
2023/03/07 03:13:45;;;;;;;22.73;19.97;;;4.10;99.90;;;;;;5095020;28;20460;-70
2023/03/07 03:16:13;;;;;;;21.87;20.07;;;4.10;99.90;;;;;;5088168;28;21029;-71
2023/03/07 03:18:40;;;;;;;23.03;21.00;;;4.10;99.90;;;;;;5088662;28;21050;-71
2023/03/07 03:21:08;;;;;;;25.47;22.13;;;4.10;99.90;;;;;;5093537;28;20469;-70
2023/03/07 03:23:36;;;;;;;23.87;21.67;;;4.10;99.90;;;;;;5098529;28;20575;-70
2023/03/07 03:26:06;;;;;;;24.03;21.97;;;4.10;99.90;;;;;;5090614;28;20578;-70
2023/03/07 03:28:33;;;;;;;23.93;21.43;;;4.10;99.90;;;;;;5093807;28;20457;-71
2023/03/07 03:31:02;;;;;;;25.33;22.90;;;4.10;99.90;;;;;;5092301;28;20472;-70
2023/03/07 03:33:30;;;;;;;25.37;22.90;;;4.10;99.90;;;;;;5094653;28;20866;-71
2023/03/07 03:35:57;;;;;;;20.43;18.67;;;4.10;99.90;;;;;;5091067;28;21006;-71
2023/03/07 03:38:25;;;;;;;25.63;23.00;;;4.00;99.90;;;;;;5092395;28;20449;-70
2023/03/07 03:40:53;;;;;;;24.70;22.20;;;4.10;99.90;;;;;;5095976;28;20466;-70
2023/03/07 03:43:19;;;;;;;24.87;22.57;;;4.00;99.90;;;;;;5092847;28;21013;-70
2023/03/07 03:45:54;;;;;;;25.07;22.87;;;4.00;99.90;;;;;;5094000;28;20469;-69
2023/03/07 03:48:22;;;;;;;21.40;19.20;;;4.00;99.90;;;;;;5086085;28;20605;-68
2023/03/07 03:50:50;;;;;;;25.10;22.73;;;4.00;99.90;;;;;;5092077;28;20461;-70
2023/03/07 03:53:17;;;;;;;24.87;22.67;;;4.00;99.90;;;;;;5093575;28;20502;-70
2023/03/07 03:55:44;;;;;;;26.60;24.00;;;4.00;99.90;;;;;;5092882;28;20524;-71
2023/03/07 03:58:11;;;;;;;22.77;20.77;;;4.00;99.90;;;;;;5088970;28;20511;-71
2023/03/07 04:00:37;;;;;;;24.10;21.80;;;3.90;99.90;;;;;;5087555;28;20540;-69
2023/03/07 04:03:04;;;;;;;22.63;20.33;;;3.90;99.90;;;;;;5088524;28;20486;-70
2023/03/07 04:05:34;;;;;;;26.30;23.77;;;3.90;99.90;;;;;;5084178;28;20464;-72
2023/03/07 04:08:02;;;;;;;22.30;20.40;;;3.90;99.90;;;;;;5095662;28;20565;-71
2023/03/07 04:10:29;;;;;;;26.07;23.50;;;3.90;99.90;;;;;;5094259;28;20557;-71
2023/03/07 04:12:55;;;;;;;25.57;22.90;;;3.90;99.90;;;;;;5094173;28;20518;-70
2023/03/07 04:15:22;;;;;;;25.70;23.20;;;3.80;99.90;;;;;;5087862;28;20552;-70
2023/03/07 04:17:49;;;;;;;28.10;23.70;;;3.90;99.90;;;;;;5088874;28;20526;-71
2023/03/07 04:20:17;;;;;;;24.67;22.27;;;3.90;99.90;;;;;;5090262;28;20475;-71
2023/03/07 04:22:45;;;;;;;26.23;23.77;;;3.90;99.90;;;;;;5090985;28;20507;-71
2023/03/07 04:25:13;;;;;;;23.87;21.90;;;3.90;99.90;;;;;;5092264;28;20466;-71
2023/03/07 04:27:40;;;;;;;22.33;20.23;;;3.90;99.90;;;;;;5095096;28;20466;-70
2023/03/07 04:30:08;;;;;;;26.00;23.30;;;3.90;99.90;;;;;;5093498;28;20470;-70
2023/03/07 04:32:35;;;;;;;24.43;22.13;;;3.90;99.90;;;;;;5089391;28;20870;-71
2023/03/07 04:35:02;;;;;;;26.20;23.50;;;3.90;99.90;;;;;;5097174;28;20466;-71
2023/03/07 04:37:30;;;;;;;26.73;24.23;;;4.00;99.90;;;;;;5099909;28;20465;-70
2023/03/07 04:39:57;;;;;;;25.63;23.07;;;3.90;99.90;;;;;;5102298;28;20774;-71
2023/03/07 04:42:25;;;;;;;23.70;21.40;;;3.90;99.90;;;;;;5095248;28;20490;-71
2023/03/07 04:44:52;;;;;;;23.30;20.93;;;3.90;99.90;;;;;;5096682;28;20483;-71
2023/03/07 04:47:19;;;;;;;27.13;24.37;;;3.90;99.90;;;;;;5091292;28;20454;-71
2023/03/07 04:49:45;;;;;;;22.97;20.93;;;3.90;99.90;;;;;;5098749;28;20495;-70
2023/03/07 04:52:12;;;;;;;27.47;24.87;;;3.90;99.90;;;;;;5093825;28;20466;-71
2023/03/07 04:54:40;;;;;;;25.23;23.03;;;3.90;99.90;;;;;;5096847;28;20453;-71
2023/03/07 04:57:08;;;;;;;22.73;20.67;;;3.90;99.90;;;;;;5092366;28;20544;-71
2023/03/07 04:59:38;;;;;;;25.00;22.77;;;3.90;99.90;;;;;;5089885;28;20512;-70
2023/03/07 05:02:06;;;;;;;26.30;23.70;;;3.90;99.90;;;;;;5090748;28;20868;-71
2023/03/07 05:04:33;;;;;;;25.97;23.60;;;4.00;99.90;;;;;;5097137;28;21104;-70
2023/03/07 05:07:00;;;;;;;26.03;22.87;;;4.00;99.90;;;;;;5095952;28;20472;-70
2023/03/07 05:09:27;;;;;;;24.83;22.37;;;4.00;99.90;;;;;;5097777;28;20459;-71
2023/03/07 05:11:54;;;;;;;27.23;24.50;;;4.00;99.90;;;;;;5095734;28;20458;-70
2023/03/07 05:14:21;;;;;;;27.23;23.53;;;4.00;99.90;;;;;;5091861;28;20453;-70
2023/03/07 05:16:50;;;;;;;24.43;22.30;;;3.90;99.90;;;;;;5086519;28;20466;-71
2023/03/07 05:19:17;;;;;;;26.13;23.63;;;3.90;99.90;;;;;;5095687;28;20489;-70
2023/03/07 05:21:43;;;;;;;23.37;21.40;;;3.90;99.90;;;;;;5098484;28;20873;-71
2023/03/07 05:24:10;;;;;;;25.97;23.67;;;3.90;99.90;;;;;;5091948;28;20563;-71
2023/03/07 05:26:37;;;;;;;23.43;21.17;;;4.00;99.90;;;;;;5089996;28;20983;-70
2023/03/07 05:29:04;;;;;;;24.50;22.10;;;4.00;99.90;;;;;;5092346;28;20502;-71
2023/03/07 05:31:31;;;;;;;24.97;22.33;;;4.00;99.90;;;;;;5093209;28;20977;-71
2023/03/07 05:33:59;;;;;;;25.87;23.53;;;3.90;99.90;;;;;;5090864;28;20457;-71
2023/03/07 05:36:26;;;;;;;20.57;18.60;;;4.00;99.90;;;;;;5092378;28;20466;-71
2023/03/07 05:38:55;;;;;;;24.40;21.97;;;4.00;99.90;;;;;;5093766;28;21000;-72
2023/03/07 05:41:22;;;;;;;32.40;25.50;;;4.00;99.90;;;;;;5089603;28;20894;-71
2023/03/07 05:43:49;;;;;;;26.33;23.83;;;4.00;99.90;;;;;;5087887;28;20863;-70
2023/03/07 05:46:16;;;;;;;23.93;21.67;;;4.00;99.90;;;;;;5089510;28;20473;-71
2023/03/07 05:48:42;;;;;;;27.30;20.30;;;4.00;99.90;;;;;;5092802;28;20464;-71
2023/03/07 05:51:10;;;;;;;25.70;23.20;;;4.00;99.90;;;;;;5084073;28;20942;-71
2023/03/07 05:53:37;;;;;;;24.20;21.90;;;4.10;99.90;;;;;;5093444;28;20943;-71
2023/03/07 05:56:04;;;;;;;24.63;21.73;;;4.00;99.90;;;;;;5092676;28;20464;-71
2023/03/07 05:58:31;;;;;;;24.20;21.80;;;4.00;99.90;;;;;;5092137;28;21102;-71
2023/03/07 06:00:58;;;;;;;24.83;22.40;;;4.10;99.90;;;;;;5091870;28;21043;-72
2023/03/07 06:03:25;;;;;;;28.00;25.00;;;4.10;99.90;;;;;;5085897;28;20477;-72
2023/03/07 06:05:52;;;;;;;27.10;24.60;;;4.10;99.90;;;;;;5092026;28;20511;-72
2023/03/07 06:08:20;;;;;;;26.37;23.57;;;4.10;99.90;;;;;;5094529;28;20466;-70
2023/03/07 06:10:49;;;;;;;23.97;21.80;;;4.10;99.90;;;;;;5095511;28;20461;-70
2023/03/07 06:13:18;;;;;;;25.97;23.07;;;4.10;99.90;;;;;;5091449;28;20465;-70
2023/03/07 06:15:48;;;;;;;25.30;22.87;;;4.20;99.90;;;;;;5087790;28;20453;-71
2023/03/07 06:18:15;;;;;;;29.87;26.70;;;4.10;99.90;;;;;;5087498;28;20509;-70
2023/03/07 06:20:42;;;;;;;26.90;24.20;;;4.20;99.90;;;;;;5093360;28;20461;-71
2023/03/07 06:23:09;;;;;;;24.50;22.20;;;4.20;99.90;;;;;;5091624;28;20496;-70
2023/03/07 06:25:39;;;;;;;28.60;25.60;;;4.20;99.90;;;;;;5093296;28;20503;-71
2023/03/07 06:28:05;;;;;;;28.40;25.80;;;4.20;99.90;;;;;;5089744;28;20830;-71
2023/03/07 06:30:33;;;;;;;26.70;24.23;;;4.20;99.90;;;;;;5093096;28;20454;-71
2023/03/07 06:33:00;;;;;;;25.13;22.80;;;4.20;99.90;;;;;;5091061;28;20816;-69
2023/03/07 06:35:27;;;;;;;29.57;25.03;;;4.20;99.90;;;;;;5091083;28;20538;-71
2023/03/07 06:37:54;;;;;;;33.83;26.47;;;4.20;99.90;;;;;;5096519;28;20470;-71
2023/03/07 06:40:22;;;;;;;27.70;25.03;;;4.20;99.90;;;;;;5100850;28;20819;-70
2023/03/07 06:42:52;;;;;;;25.07;22.87;;;4.30;99.90;;;;;;5084023;28;21062;-69
2023/03/07 06:45:19;;;;;;;28.53;25.90;;;4.30;99.90;;;;;;5089596;28;20472;-70
2023/03/07 06:47:46;;;;;;;30.43;27.13;;;4.20;99.90;;;;;;5091141;28;20465;-71
2023/03/07 06:50:13;;;;;;;27.97;25.07;;;4.30;99.90;;;;;;5086421;28;21245;-70
2023/03/07 06:52:40;;;;;;;25.07;22.67;;;4.30;99.90;;;;;;5091047;28;20550;-71
2023/03/07 06:55:08;;;;;;;24.77;22.37;;;4.30;99.90;;;;;;5095576;28;20451;-72
2023/03/07 06:57:35;;;;;;;28.20;23.60;;;4.30;99.90;;;;;;5090796;28;20464;-72
2023/03/07 07:00:05;;;;;;;23.53;21.33;;;4.30;99.90;;;;;;5091413;28;20464;-72
2023/03/07 07:02:32;;;;;;;26.97;24.10;;;4.30;99.90;;;;;;5090504;28;20564;-72
2023/03/07 07:05:01;;;;;;;29.23;25.10;;;4.40;99.90;;;;;;5084245;28;20545;-71
2023/03/07 07:07:29;;;;;;;27.53;24.77;;;4.40;99.90;;;;;;5085156;28;20949;-71
2023/03/07 07:09:56;;;;;;;25.37;22.63;;;4.40;99.90;;;;;;5091847;28;20449;-69
2023/03/07 07:12:23;;;;;;;29.43;26.43;;;4.40;99.90;;;;;;5084324;28;20815;-70
2023/03/07 07:14:50;;;;;;;26.40;24.20;;;4.50;99.90;;;;;;5088115;28;20461;-70
2023/03/07 07:17:19;;;;;;;28.23;25.63;;;4.40;99.90;;;;;;5080315;28;20462;-70
2023/03/07 07:19:46;;;;;;;27.33;24.93;;;4.40;99.90;;;;;;5084594;28;20461;-71
2023/03/07 07:22:16;;;;;;;33.03;26.20;;;4.50;99.90;;;;;;5093256;28;20600;-70
2023/03/07 07:24:43;;;;;;;25.17;22.97;;;4.50;99.90;;;;;;5089277;28;20482;-71
2023/03/07 07:27:10;;;;;;;32.53;26.97;;;4.40;99.90;;;;;;5084822;28;20469;-71
2023/03/07 07:29:37;;;;;;;29.37;26.57;;;4.40;99.90;;;;;;5088531;28;20522;-71
2023/03/07 07:32:05;;;;;;;28.87;26.27;;;4.50;99.90;;;;;;5088162;28;20471;-72
2023/03/07 07:34:33;;;;;;;29.00;25.90;;;4.40;99.90;;;;;;5088006;28;20470;-71
2023/03/07 07:37:00;;;;;;;26.07;23.77;;;4.40;99.90;;;;;;5086868;28;20470;-70
2023/03/07 07:39:27;;;;;;;27.90;25.40;;;4.40;99.90;;;;;;5092558;28;20920;-71
2023/03/07 07:41:54;;;;;;;24.80;22.80;;;4.40;99.90;;;;;;5089504;28;20504;-71
2023/03/07 07:44:22;;;;;;;27.60;25.30;;;4.40;99.90;;;;;;5088382;28;20566;-71
2023/03/07 07:46:49;;;;;;;24.27;21.87;;;4.40;99.90;;;;;;5087463;28;21011;-70
2023/03/07 07:49:17;;;;;;;23.40;21.40;;;4.40;99.90;;;;;;5087943;28;20870;-70
2023/03/07 07:51:47;;;;;;;26.70;23.30;;;4.30;99.90;;;;;;5087456;28;20458;-71
2023/03/07 07:54:15;;;;;;;26.80;24.40;;;4.30;99.90;;;;;;5087547;28;20470;-71
2023/03/07 07:56:41;;;;;;;28.17;25.53;;;4.40;99.90;;;;;;5089668;28;20493;-71
2023/03/07 07:59:09;;;;;;;25.03;22.80;;;4.30;99.90;;;;;;5092763;28;20931;-71
2023/03/07 08:01:36;;;;;;;24.60;22.53;;;4.40;99.90;;;;;;5092272;28;20462;-70
2023/03/07 08:04:03;;;;;;;28.77;25.67;;;4.50;99.90;;;;;;5093217;28;20489;-70
2023/03/07 08:06:30;;;;;;;28.07;25.57;;;4.50;99.90;;;;;;5097811;28;21336;-70
2023/03/07 08:08:59;;;;;;;28.30;25.70;;;4.50;99.90;;;;;;5090437;28;20526;-71
2023/03/07 08:11:26;;;;;;;25.57;23.30;;;4.50;99.90;;;;;;5095630;28;20469;-71
2023/03/07 08:13:54;;;;;;;25.83;23.60;;;4.50;99.90;;;;;;5090926;28;20475;-72
2023/03/07 08:16:23;;;;;;;26.43;24.23;;;4.50;99.90;;;;;;5089597;28;20866;-70
2023/03/07 08:18:51;;;;;;;26.33;24.10;;;4.60;99.90;;;;;;5092385;28;20494;-71
2023/03/07 08:21:18;;;;;;;24.00;22.10;;;4.60;99.90;;;;;;5087525;28;20493;-71
2023/03/07 08:23:44;;;;;;;27.43;25.13;;;4.60;99.90;;;;;;5090085;28;20846;-70
2023/03/07 08:26:13;;;;;;;27.57;25.07;;;4.60;99.90;;;;;;5085698;28;21193;-72
2023/03/07 08:28:41;;;;;;;25.43;23.10;;;4.60;99.90;;;;;;5095561;28;20457;-71
2023/03/07 08:31:09;;;;;;;26.70;24.50;;;4.70;99.90;;;;;;5094343;28;21159;-71
2023/03/07 08:33:35;;;;;;;27.27;24.90;;;4.70;99.90;;;;;;5090712;28;20461;-71
2023/03/07 08:36:02;;;;;;;26.97;24.47;;;4.70;99.90;;;;;;5091726;28;20462;-71
2023/03/07 08:38:29;;;;;;;25.97;23.47;;;4.70;99.90;;;;;;5091030;28;20843;-71
2023/03/07 08:41:00;;;;;;;25.50;23.20;;;4.70;99.90;;;;;;5093138;28;20446;-70
2023/03/07 08:43:29;;;;;;;23.00;21.17;;;4.70;99.90;;;;;;5095759;28;20480;-70
2023/03/07 08:45:57;;;;;;;28.07;25.17;;;4.70;99.90;;;;;;5098777;28;20506;-70
2023/03/07 08:48:24;;;;;;;26.83;24.33;;;4.80;99.90;;;;;;5087472;28;20454;-70
2023/03/07 08:50:51;;;;;;;27.00;25.00;;;4.80;99.90;;;;;;5083387;28;21095;-71
2023/03/07 08:53:18;;;;;;;29.57;26.67;;;4.80;99.90;;;;;;5083348;28;20969;-71
2023/03/07 08:55:45;;;;;;;23.93;22.00;;;4.80;99.90;;;;;;5091063;28;21437;-70
2023/03/07 08:58:12;;;;;;;26.30;23.80;;;4.90;99.90;;;;;;5085847;28;20461;-72
2023/03/07 09:00:41;;;;;;;23.67;21.97;;;4.90;99.90;;;;;;5087670;28;20837;-71
2023/03/07 09:03:08;;;;;;;24.00;22.13;;;4.80;99.90;;;;;;5088427;28;20462;-70
2023/03/07 09:05:38;;;;;;;26.30;23.83;;;4.80;99.90;;;;;;5086789;28;20500;-70
2023/03/07 09:08:05;;;;;;;23.57;21.53;;;4.90;99.90;;;;;;5086631;28;20535;-71
2023/03/07 09:10:32;;;;;;;25.87;23.50;;;4.90;99.90;;;;;;5087095;28;21506;-71
2023/03/07 09:12:59;;;;;;;23.17;21.30;;;4.90;99.90;;;;;;5086923;28;20474;-70
2023/03/07 09:15:26;;;;;;;25.33;23.23;;;4.90;99.90;;;;;;5089879;28;20817;-71
2023/03/07 09:17:55;;;;;;;22.53;20.60;;;4.90;99.90;;;;;;5090640;27;20576;-71
2023/03/07 09:20:22;;;;;;;23.93;21.63;;;5.00;99.90;;;;;;5091981;28;20461;-71
2023/03/07 09:22:50;;;;;;;26.07;23.37;;;4.90;99.90;;;;;;5088419;28;20683;-71
2023/03/07 09:25:17;;;;;;;24.70;21.60;;;5.00;99.90;;;;;;5092537;28;20586;-72
2023/03/07 09:27:44;;;;;;;25.70;23.47;;;4.90;99.90;;;;;;5096326;28;20548;-72
2023/03/07 09:30:12;;;;;;;25.20;22.30;;;4.90;99.90;;;;;;5095560;28;20556;-72
2023/03/07 09:32:39;;;;;;;26.30;24.00;;;4.90;99.90;;;;;;5094197;28;20474;-71
2023/03/07 09:35:09;;;;;;;23.47;21.67;;;4.90;99.90;;;;;;5092160;28;20457;-71
2023/03/07 09:37:36;;;;;;;24.27;22.20;;;5.00;99.90;;;;;;5090632;28;20468;-70
2023/03/07 09:40:06;;;;;;;25.87;23.43;;;5.00;99.90;;;;;;5095598;28;20487;-70
2023/03/07 09:42:41;;;;;;;24.20;22.27;;;5.10;99.90;;;;;;5089323;28;20490;-71
2023/03/07 09:45:29;;;;;;;24.40;22.30;;;5.00;99.90;;;;;;5094597;28;20488;-72
2023/03/07 09:48:20;;;;;;;27.73;25.10;;;5.00;99.90;;;;;;5093834;28;20869;-71
2023/03/07 09:50:53;;;;;;;27.30;24.63;;;5.10;99.90;;;;;;5093768;28;20470;-71
2023/03/07 09:53:28;;;;;;;24.47;22.57;;;5.00;99.90;;;;;;5093445;28;20465;-71
2023/03/07 09:55:57;;;;;;;25.10;22.97;;;4.90;99.90;;;;;;5090184;28;20461;-72
2023/03/07 09:58:25;;;;;;;26.93;24.13;;;4.90;99.90;;;;;;5100602;28;20873;-72
2023/03/07 10:00:58;;;;;;;27.33;24.83;;;4.90;99.90;;;;;;5085125;28;20864;-72
2023/03/07 10:03:32;;;;;;;26.13;23.63;;;4.90;99.90;;;;;;5091207;28;20461;-72
2023/03/07 10:06:09;;;;;;;26.83;24.40;;;4.80;99.90;;;;;;5091798;28;21012;-72
2023/03/07 10:08:37;;;;;;;27.20;24.57;;;4.80;99.90;;;;;;5096142;28;20464;-70
2023/03/07 10:11:21;;;;;;;26.20;24.10;;;4.80;99.90;;;;;;5093219;28;20974;-71
2023/03/07 10:14:05;;;;;;;22.33;20.93;;;4.80;99.90;;;;;;5098459;28;20467;-71
2023/03/07 10:16:40;;;;;;;22.40;20.10;;;4.10;99.90;;;;;;5087891;28;20495;-72
2023/03/07 10:19:15;;;;;;;19.47;18.40;;;3.50;99.90;;;;;;5089350;28;20477;-72
2023/03/07 10:21:57;;;;;;;19.90;18.70;;;3.10;99.90;;;;;;5087871;28;20524;-72
2023/03/07 10:24:36;;;;;;;22.30;20.70;;;2.90;99.90;;;;;;5086160;28;20489;-72
2023/03/07 10:27:06;;;;;;;20.70;19.50;;;2.80;99.90;;;;;;5089202;28;20458;-72
2023/03/07 10:29:40;;;;;;;19.00;17.90;;;2.80;99.90;;;;;;5093271;28;20825;-71
2023/03/07 10:32:22;;;;;;;20.43;19.33;;;2.80;99.90;;;;;;5096643;28;20465;-71
2023/03/07 10:34:56;;;;;;;19.93;18.90;;;2.90;99.90;;;;;;5098207;28;20469;-70
2023/03/07 10:37:39;;;;;;;20.03;18.93;;;2.90;99.90;;;;;;5093480;28;20980;-71
2023/03/07 10:40:09;;;;;;;19.57;18.60;;;2.90;99.90;;;;;;5093345;28;20855;-71
2023/03/07 10:42:39;;;;;;;20.20;19.10;;;2.90;99.90;;;;;;5087209;28;20489;-72
2023/03/07 10:45:11;;;;;;;20.37;19.17;;;3.00;99.90;;;;;;5094160;28;20494;-71
2023/03/07 10:47:40;;;;;;;19.83;18.77;;;3.00;99.90;;;;;;5093378;28;20581;-71
2023/03/07 10:50:23;;;;;;;19.10;18.10;;;3.00;99.90;;;;;;5094068;28;20952;-71
2023/03/07 10:52:54;;;;;;;19.30;18.30;;;3.00;99.90;;;;;;5094147;28;20469;-71
2023/03/07 10:55:36;;;;;;;19.50;18.40;;;2.90;99.90;;;;;;5091572;28;20473;-71
2023/03/07 10:58:19;;;;;;;19.37;18.07;;;3.00;99.90;;;;;;5093054;28;20472;-71
2023/03/07 11:00:58;;;;;;;20.00;18.90;;;2.90;99.90;;;;;;5081438;28;20468;-72
2023/03/07 11:03:29;;;;;;;19.17;18.17;;;3.00;99.90;;;;;;5091389;28;20806;-71
2023/03/07 11:05:56;;;;;;;19.83;18.67;;;3.00;99.90;;;;;;5086796;28;20530;-71
2023/03/07 11:08:30;;;;;;;20.50;19.33;;;3.10;99.90;;;;;;5089190;28;20465;-71
2023/03/07 11:10:57;;;;;;;20.37;19.13;;;3.10;99.90;;;;;;5092292;28;20538;-72
2023/03/07 11:13:24;;;;;;;19.30;18.30;;;3.10;99.90;;;;;;5098239;28;20457;-71
2023/03/07 11:15:52;;;;;;;18.70;17.77;;;2.90;99.90;;;;;;5093259;28;20886;-71
2023/03/07 11:18:31;;;;;;;18.67;17.77;;;2.70;99.90;;;;;;5093268;28;20477;-72
2023/03/07 11:20:58;;;;;;;18.80;17.80;;;2.60;99.90;;;;;;5089710;28;20484;-72
2023/03/07 11:23:29;;;;;;;19.90;18.80;;;2.50;99.90;;;;;;5085947;28;21514;-71
2023/03/07 11:25:57;;;;;;;20.70;19.60;;;2.40;99.90;;;;;;5091387;28;20497;-71
2023/03/07 11:28:30;;;;;;;20.30;19.20;;;2.40;99.90;;;;;;5091980;28;20959;-72
2023/03/07 11:31:11;;;;;;;19.93;18.20;;;2.30;99.90;;;;;;5100780;28;20732;-71
2023/03/07 11:33:56;;;;;;;19.00;17.97;;;2.30;99.90;;;;;;5095300;28;20464;-72
2023/03/07 11:36:29;;;;;;;20.53;18.20;;;2.30;99.90;;;;;;5089783;28;20975;-71
2023/03/07 11:39:02;;;;;;;19.73;18.63;;;2.40;99.90;;;;;;5090559;28;20874;-71
2023/03/07 11:41:31;;;;;;;19.27;18.13;;;2.40;99.90;;;;;;5097920;28;20457;-72
2023/03/07 11:44:08;;;;;;;18.77;17.67;;;2.60;99.90;;;;;;5100288;28;20462;-72
2023/03/07 11:46:49;;;;;;;18.50;17.60;;;2.80;99.90;;;;;;5090926;28;20489;-71
2023/03/07 11:49:35;;;;;;;19.33;18.33;;;3.00;99.90;;;;;;5091257;28;20535;-70
2023/03/07 11:52:17;;;;;;;19.30;18.10;;;3.00;99.90;;;;;;5091403;28;20488;-70
2023/03/07 11:54:57;;;;;;;19.83;18.73;;;3.00;99.90;;;;;;5096896;28;20521;-71
2023/03/07 11:57:42;;;;;;;20.10;19.10;;;3.00;99.90;;;;;;5090110;28;20781;-70
2023/03/07 12:00:26;;;;;;;20.30;19.20;;;3.00;99.90;;;;;;5098965;28;20870;-72
2023/03/07 12:03:16;;;;;;;20.03;18.83;;;3.10;99.90;;;;;;5097876;28;20496;-72
2023/03/07 12:05:59;;;;;;;20.70;19.60;;;3.00;99.90;;;;;;5095269;28;20485;-71
2023/03/07 12:08:37;;;;;;;19.80;18.70;;;2.90;99.90;;;;;;5092101;28;21252;-71
2023/03/07 12:11:18;;;;;;;20.40;19.30;;;2.80;99.90;;;;;;5098822;28;20466;-71
2023/03/07 12:13:53;;;;;;;21.80;20.40;;;2.70;99.90;;;;;;5097051;28;20481;-71
2023/03/07 12:16:29;;;;;;;20.30;19.20;;;2.60;99.90;;;;;;5097002;28;20456;-72
2023/03/07 12:19:14;;;;;;;20.93;19.63;;;2.50;99.90;;;;;;5097665;28;20975;-72
2023/03/07 12:22:03;;;;;;;21.13;19.93;;;2.50;99.90;;;;;;5089782;28;20465;-72
2023/03/07 12:24:35;;;;;;;20.47;19.27;;;2.40;99.90;;;;;;5094284;28;20474;-71
2023/03/07 12:27:10;;;;;;;21.83;20.63;;;2.30;99.90;;;;;;5091595;28;20458;-72
2023/03/07 12:29:40;;;;;;;22.50;21.00;;;2.30;99.90;;;;;;5098522;28;20460;-71
2023/03/07 12:32:12;;;;;;;21.77;20.57;;;2.30;99.90;;;;;;5101096;28;20453;-73
2023/03/07 12:34:42;;;;;;;22.33;20.60;;;2.40;99.90;;;;;;5096112;28;20461;-72
2023/03/07 12:37:13;;;;;;;22.10;20.77;;;2.30;99.90;;;;;;5093890;28;20461;-72
2023/03/07 12:39:48;;;;;;;23.10;21.50;;;2.30;99.90;;;;;;5090933;28;20480;-71
2023/03/07 12:42:30;;;;;;;22.17;20.97;;;2.20;99.90;;;;;;5093348;28;20485;-72
2023/03/07 12:45:00;;;;;;;21.83;20.63;;;2.40;99.90;;;;;;5094493;28;20473;-73
2023/03/07 12:47:34;;;;;;;21.60;20.20;;;2.50;99.90;;;;;;5091395;28;20473;-71
2023/03/07 12:50:08;;;;;;;22.13;20.80;;;2.60;99.90;;;;;;5099279;28;21012;-71